createdAt,value
2023-03-22T00:02:07.836Z,99.15
2023-03-22T00:04:35.396Z,99.49
2023-03-22T00:07:02.887Z,99.57
2023-03-22T00:09:30.859Z,99.30
2023-03-22T00:12:00.972Z,98.71
2023-03-22T00:14:28.538Z,100.00
2023-03-22T00:16:56.656Z,100.00
2023-03-22T00:19:24.146Z,100.00
2023-03-22T00:21:51.653Z,100.00
2023-03-22T00:24:21.141Z,100.00
2023-03-22T00:26:48.660Z,100.00
2023-03-22T00:29:16.141Z,100.00
2023-03-22T00:31:44.332Z,100.00
2023-03-22T00:34:13.181Z,100.00
2023-03-22T00:36:40.841Z,100.00
2023-03-22T00:39:08.763Z,100.00
2023-03-22T00:41:36.256Z,100.00
2023-03-22T00:44:03.828Z,100.00
2023-03-22T00:46:31.378Z,99.93
2023-03-22T00:48:58.848Z,100.00
2023-03-22T00:51:26.715Z,100.00
2023-03-22T00:53:57.411Z,99.53
2023-03-22T00:56:28.816Z,100.00
2023-03-22T00:59:02.325Z,100.00
2023-03-22T01:01:30.894Z,100.00
2023-03-22T01:03:58.671Z,100.00
2023-03-22T01:06:26.217Z,100.00
2023-03-22T01:08:55.164Z,100.00
2023-03-22T01:11:23.164Z,97.97
2023-03-22T01:13:52.558Z,96.62
2023-03-22T01:16:20.048Z,95.95
2023-03-22T01:18:48.176Z,100.00
2023-03-22T01:21:16.289Z,96.57
2023-03-22T01:23:43.775Z,96.46
2023-03-22T01:26:11.243Z,98.77
2023-03-22T01:28:40.627Z,98.73
2023-03-22T01:31:08.417Z,98.70
2023-03-22T01:33:36.748Z,100.00
2023-03-22T01:36:04.790Z,100.00
2023-03-22T01:38:34.409Z,100.00
2023-03-22T01:41:02.666Z,100.00
2023-03-22T01:43:32.618Z,100.00
2023-03-22T01:46:00.923Z,100.00
2023-03-22T01:48:46.029Z,100.00
2023-03-22T01:51:25.417Z,100.00
2023-03-22T01:54:37.164Z,100.00
2023-03-22T01:57:18.613Z,100.00
2023-03-22T01:59:48.031Z,100.00
2023-03-22T02:02:45.293Z,100.00
2023-03-22T02:05:23.014Z,100.00
2023-03-22T02:07:51.478Z,100.00
2023-03-22T02:10:24.849Z,100.00
2023-03-22T02:13:16.616Z,100.00
2023-03-22T02:16:08.779Z,100.00
2023-03-22T02:19:03.526Z,100.00
2023-03-22T02:22:39.354Z,100.00
2023-03-22T02:25:27.772Z,99.72
2023-03-22T02:28:33.351Z,100.00
2023-03-22T02:31:31.480Z,100.00
2023-03-22T02:34:23.716Z,100.00
2023-03-22T02:37:18.171Z,100.00
2023-03-22T02:40:36.979Z,100.00
2023-03-22T02:44:08.565Z,100.00
2023-03-22T02:46:56.135Z,100.00
2023-03-22T02:49:52.636Z,100.00
2023-03-22T02:52:49.300Z,100.00
2023-03-22T02:55:31.922Z,100.00
2023-03-22T02:58:12.697Z,100.00
2023-03-22T03:00:42.441Z,100.00
2023-03-22T03:03:18.277Z,100.00
2023-03-22T03:05:54.899Z,100.00
2023-03-22T03:08:24.913Z,100.00
2023-03-22T03:10:54.477Z,100.00
2023-03-22T03:13:22.669Z,100.00
2023-03-22T03:15:57.333Z,100.00
2023-03-22T03:19:00.177Z,100.00
2023-03-22T03:21:37.318Z,100.00
2023-03-22T03:24:27.092Z,100.00
2023-03-22T03:27:15.039Z,100.00
2023-03-22T03:30:17.556Z,100.00
2023-03-22T03:32:54.142Z,100.00
2023-03-22T03:35:33.640Z,100.00
2023-03-22T03:38:25.860Z,100.00
2023-03-22T03:41:07.045Z,100.00
2023-03-22T03:43:35.618Z,100.00
2023-03-22T03:46:03.521Z,100.00
2023-03-22T03:48:36.737Z,100.00
2023-03-22T03:51:04.772Z,100.00
2023-03-22T03:53:34.337Z,100.00
2023-03-22T03:56:02.016Z,100.00
2023-03-22T03:58:38.717Z,100.00
2023-03-22T04:01:07.077Z,100.00
2023-03-22T04:03:55.442Z,100.00
2023-03-22T04:06:29.363Z,100.00
2023-03-22T04:09:02.066Z,100.00
2023-03-22T04:11:33.559Z,100.00
2023-03-22T04:14:03.288Z,100.00
2023-03-22T04:16:30.924Z,100.00
2023-03-22T04:18:58.492Z,100.00
2023-03-22T04:21:25.959Z,100.00
2023-03-22T04:24:02.073Z,100.00
2023-03-22T04:26:35.520Z,100.00
2023-03-22T04:29:19.143Z,100.00
2023-03-22T04:31:53.104Z,100.00
2023-03-22T04:34:28.781Z,100.00
2023-03-22T04:37:02.554Z,100.00
2023-03-22T04:39:39.138Z,100.00
2023-03-22T04:42:26.719Z,100.00
2023-03-22T04:45:07.088Z,100.00
2023-03-22T04:47:35.986Z,100.00
2023-03-22T04:50:09.164Z,100.00
2023-03-22T04:52:44.417Z,100.00
2023-03-22T04:55:12.052Z,100.00
2023-03-22T04:57:39.677Z,100.00
2023-03-22T05:00:08.701Z,100.00
2023-03-22T05:02:41.114Z,100.00
2023-03-22T05:05:14.479Z,100.00
2023-03-22T05:07:41.934Z,100.00
2023-03-22T05:10:11.430Z,100.00
2023-03-22T05:12:39.748Z,100.00
2023-03-22T05:15:29.638Z,100.00
2023-03-22T05:17:59.035Z,100.00
2023-03-22T05:20:27.855Z,100.00
2023-03-22T05:23:21.094Z,100.00
2023-03-22T05:25:58.361Z,100.00
2023-03-22T05:28:28.982Z,100.00
2023-03-22T05:31:21.825Z,100.00
2023-03-22T05:33:57.557Z,100.00
2023-03-22T05:36:29.754Z,100.00
2023-03-22T05:39:29.649Z,100.00
2023-03-22T05:41:58.265Z,100.00
2023-03-22T05:44:26.365Z,100.00
2023-03-22T05:47:07.018Z,100.00
2023-03-22T05:49:41.258Z,100.00
2023-03-22T05:52:09.685Z,100.00
2023-03-22T05:54:52.884Z,100.00
2023-03-22T05:57:23.172Z,100.00
2023-03-22T05:59:53.971Z,100.00
2023-03-22T06:02:27.082Z,100.00
2023-03-22T06:04:54.679Z,100.00
2023-03-22T06:07:22.259Z,100.00
2023-03-22T06:09:55.880Z,100.00
2023-03-22T06:12:27.223Z,100.00
2023-03-22T06:15:16.329Z,100.00
2023-03-22T06:18:16.290Z,100.00
2023-03-22T06:20:49.431Z,100.00
2023-03-22T06:23:21.235Z,100.00
2023-03-22T06:25:49.460Z,100.00
2023-03-22T06:28:18.169Z,100.00
2023-03-22T06:30:54.457Z,100.00
2023-03-22T06:33:40.947Z,100.00
2023-03-22T06:36:23.498Z,100.00
2023-03-22T06:39:14.016Z,100.00
2023-03-22T06:41:44.617Z,100.00
2023-03-22T06:44:12.285Z,100.00
2023-03-22T06:46:51.793Z,100.00
2023-03-22T06:49:42.171Z,100.00
2023-03-22T06:52:15.355Z,100.00
2023-03-22T06:54:43.078Z,100.00
2023-03-22T06:57:11.713Z,100.00
2023-03-22T06:59:39.403Z,100.00
2023-03-22T07:02:07.148Z,100.00
2023-03-22T07:04:35.564Z,100.00
2023-03-22T07:07:03.452Z,100.00
2023-03-22T07:09:31.063Z,100.00
2023-03-22T07:12:00.601Z,100.00
2023-03-22T07:14:30.362Z,100.00
2023-03-22T07:17:14.998Z,100.00
2023-03-22T07:19:42.951Z,100.00
2023-03-22T07:22:12.037Z,100.00
2023-03-22T07:24:50.303Z,100.00
2023-03-22T07:27:23.951Z,100.00
2023-03-22T07:29:51.605Z,100.00
2023-03-22T07:32:19.445Z,100.00
2023-03-22T07:35:09.260Z,100.00
2023-03-22T07:37:36.831Z,100.00
2023-03-22T07:40:11.446Z,100.00
2023-03-22T07:42:38.970Z,100.00
2023-03-22T07:45:25.037Z,100.00
2023-03-22T07:48:14.645Z,100.00
2023-03-22T07:50:57.031Z,100.00
2023-03-22T07:53:26.792Z,100.00
2023-03-22T07:55:56.259Z,100.00
2023-03-22T07:58:25.390Z,100.00
2023-03-22T08:00:53.195Z,100.00
2023-03-22T08:03:39.688Z,100.00
2023-03-22T08:06:34.351Z,100.00
2023-03-22T08:09:01.982Z,100.00
2023-03-22T08:11:29.826Z,100.00
2023-03-22T08:13:59.090Z,100.00
2023-03-22T08:16:27.066Z,100.00
2023-03-22T08:18:55.640Z,100.00
2023-03-22T08:21:26.051Z,100.00
2023-03-22T08:23:56.048Z,100.00
2023-03-22T08:26:29.536Z,100.00
2023-03-22T08:29:03.018Z,100.00
2023-03-22T08:31:34.508Z,100.00
2023-03-22T08:34:04.599Z,100.00
2023-03-22T08:36:33.875Z,100.00
2023-03-22T08:39:05.349Z,100.00
2023-03-22T08:41:52.774Z,100.00
2023-03-22T08:44:21.464Z,100.00
2023-03-22T08:46:49.557Z,100.00
2023-03-22T08:49:17.278Z,100.00
2023-03-22T08:51:55.143Z,100.00
2023-03-22T08:54:55.627Z,100.00
2023-03-22T08:58:03.849Z,100.00
2023-03-22T09:00:49.393Z,100.00
2023-03-22T09:03:26.999Z,100.00
2023-03-22T09:05:54.786Z,100.00
2023-03-22T09:08:22.398Z,100.00
2023-03-22T09:10:56.880Z,100.00
2023-03-22T09:13:24.726Z,100.00
2023-03-22T09:15:59.158Z,100.00
2023-03-22T09:18:30.286Z,100.00
2023-03-22T09:21:01.758Z,100.00
2023-03-22T09:23:40.533Z,100.00
2023-03-22T09:26:10.267Z,100.00
2023-03-22T09:28:38.996Z,100.00
2023-03-22T09:31:11.034Z,100.00
2023-03-22T09:33:44.762Z,100.00
2023-03-22T09:36:12.767Z,99.32
2023-03-22T09:38:42.088Z,100.00
2023-03-22T09:41:25.016Z,100.00
2023-03-22T09:43:59.889Z,100.00
2023-03-22T09:46:36.933Z,100.00
2023-03-22T09:49:11.364Z,100.00
2023-03-22T09:51:50.187Z,100.00
2023-03-22T09:54:37.302Z,98.37
2023-03-22T09:57:24.449Z,100.00
2023-03-22T10:00:16.834Z,96.49
2023-03-22T10:03:00.667Z,99.51
2023-03-22T10:05:41.451Z,96.03
2023-03-22T10:08:35.514Z,96.45
2023-03-22T10:11:03.894Z,93.29
2023-03-22T10:14:00.508Z,90.84
2023-03-22T10:16:33.283Z,89.44
2023-03-22T10:19:35.060Z,92.10
2023-03-22T10:22:05.381Z,89.40
2023-03-22T10:24:38.001Z,87.19
2023-03-22T10:27:18.134Z,89.94
2023-03-22T10:30:06.343Z,89.73
2023-03-22T10:32:58.427Z,87.57
2023-03-22T10:35:26.872Z,85.84
2023-03-22T10:38:01.372Z,85.27
2023-03-22T10:40:35.803Z,87.17
2023-03-22T10:43:33.870Z,83.51
2023-03-22T10:46:07.071Z,79.04
2023-03-22T10:48:42.395Z,79.38
2023-03-22T10:51:26.831Z,80.53
2023-03-22T10:53:58.299Z,79.52
2023-03-22T10:56:27.121Z,79.21
2023-03-22T10:59:35.775Z,79.21
2023-03-22T11:02:03.384Z,77.79
2023-03-22T11:04:31.659Z,77.36
2023-03-22T11:06:59.204Z,75.13
2023-03-22T11:09:26.694Z,74.67
2023-03-22T11:12:00.014Z,73.91
2023-03-22T11:14:37.779Z,75.38
2023-03-22T11:17:15.427Z,78.08
2023-03-22T11:20:07.860Z,74.23
2023-03-22T11:22:42.670Z,72.81
2023-03-22T11:25:27.777Z,75.20
2023-03-22T11:27:58.043Z,76.98
2023-03-22T11:30:26.775Z,77.87
2023-03-22T11:33:21.453Z,76.98
2023-03-22T11:35:56.900Z,78.45
2023-03-22T11:38:35.496Z,77.30
2023-03-22T11:41:21.934Z,76.50
2023-03-22T11:44:21.673Z,75.23
2023-03-22T11:46:57.876Z,78.74
2023-03-22T11:49:49.738Z,81.20
2023-03-22T11:52:36.970Z,81.93
2023-03-22T11:55:05.579Z,82.02
2023-03-22T11:57:55.987Z,81.17
2023-03-22T12:00:29.880Z,81.04
2023-03-22T12:03:05.537Z,83.61
2023-03-22T12:05:37.485Z,85.76
2023-03-22T12:08:22.687Z,88.37
2023-03-22T12:10:57.911Z,89.13
2023-03-22T12:13:57.553Z,86.89
2023-03-22T12:16:36.595Z,87.29
2023-03-22T12:19:06.555Z,88.20
2023-03-22T12:21:34.744Z,92.33
2023-03-22T12:24:04.365Z,93.88
2023-03-22T12:26:35.147Z,91.42
2023-03-22T12:29:09.648Z,92.42
2023-03-22T12:31:43.686Z,89.20
2023-03-22T12:34:18.991Z,88.31
2023-03-22T12:36:54.475Z,89.38
2023-03-22T12:39:46.189Z,90.01
2023-03-22T12:42:50.386Z,94.96
2023-03-22T12:45:26.932Z,95.89
2023-03-22T12:48:28.947Z,99.74
2023-03-22T12:51:12.344Z,100.00
2023-03-22T12:54:03.114Z,100.00
2023-03-22T12:56:41.573Z,100.00
2023-03-22T12:59:19.016Z,100.00
2023-03-22T13:02:22.020Z,100.00
2023-03-22T13:04:57.645Z,100.00
2023-03-22T13:07:54.416Z,100.00
2023-03-22T13:10:30.515Z,100.00
2023-03-22T13:13:30.060Z,100.00
2023-03-22T13:16:09.476Z,100.00
2023-03-22T13:18:37.978Z,100.00
2023-03-22T13:21:29.872Z,100.00
2023-03-22T13:24:06.470Z,100.00
2023-03-22T13:26:53.631Z,100.00
2023-03-22T13:29:38.865Z,100.00
2023-03-22T13:32:32.726Z,99.72
2023-03-22T13:35:00.919Z,98.49
2023-03-22T13:37:51.612Z,98.39
2023-03-22T13:40:40.120Z,97.65
2023-03-22T13:43:34.378Z,98.26
2023-03-22T13:46:10.873Z,99.72
2023-03-22T13:48:55.172Z,99.44
2023-03-22T13:51:22.858Z,100.00
2023-03-22T13:54:00.518Z,99.67
2023-03-22T13:56:47.896Z,100.00
2023-03-22T13:59:30.709Z,99.53
2023-03-22T14:02:13.738Z,98.19
2023-03-22T14:05:10.861Z,97.69
2023-03-22T14:07:48.565Z,91.61
2023-03-22T14:11:17.563Z,93.41
2023-03-22T14:13:54.689Z,92.86
2023-03-22T14:16:49.516Z,96.31
2023-03-22T14:19:26.023Z,89.17
